createdAt,value
2018-07-23T00:01:49.561Z,11.93
2018-07-23T00:04:17.738Z,9.43
2018-07-23T00:06:45.754Z,8.23
2018-07-23T00:09:13.655Z,11.77
2018-07-23T00:11:41.880Z,11.57
2018-07-23T00:14:09.834Z,12.87
2018-07-23T00:16:37.920Z,11.50
2018-07-23T00:19:06.131Z,9.87
2018-07-23T00:21:33.963Z,10.37
2018-07-23T00:24:01.845Z,10.90
2018-07-23T00:26:30.251Z,9.33
2018-07-23T00:28:58.278Z,9.87
2018-07-23T00:31:26.491Z,11.20
2018-07-23T00:33:55.412Z,12.87
2018-07-23T00:36:23.458Z,11.63
2018-07-23T00:38:51.557Z,9.70
2018-07-23T00:41:20.056Z,10.30
2018-07-23T00:43:48.060Z,10.97
2018-07-23T00:46:16.917Z,10.80
2018-07-23T00:48:45.346Z,10.93
2018-07-23T00:51:13.356Z,11.47
2018-07-23T00:53:41.374Z,13.20
2018-07-23T00:56:10.102Z,12.30
2018-07-23T00:58:38.266Z,10.53
2018-07-23T01:01:06.395Z,11.73
2018-07-23T01:03:34.578Z,8.67
2018-07-23T01:06:02.459Z,10.60
2018-07-23T01:08:30.495Z,11.37
2018-07-23T01:10:58.640Z,10.03
2018-07-23T01:13:26.507Z,10.30
2018-07-23T01:15:54.482Z,11.73
2018-07-23T01:18:22.953Z,9.27
2018-07-23T01:20:50.938Z,9.47
2018-07-23T01:23:18.946Z,10.60
2018-07-23T01:25:46.893Z,9.47
2018-07-23T01:28:15.010Z,10.83
2018-07-23T01:30:42.988Z,11.00
2018-07-23T01:33:10.959Z,9.10
2018-07-23T01:35:38.957Z,9.97
2018-07-23T01:38:06.999Z,13.80
2018-07-23T01:40:34.924Z,11.17
2018-07-23T01:43:02.907Z,10.43
2018-07-23T01:45:30.854Z,10.20
2018-07-23T01:47:59.020Z,13.53
2018-07-23T01:50:26.947Z,10.67
2018-07-23T01:52:55.000Z,10.33
2018-07-23T01:55:22.907Z,11.67
2018-07-23T01:57:50.981Z,14.00
2018-07-23T02:00:19.091Z,14.77
2018-07-23T02:02:47.350Z,18.90
2018-07-23T02:05:15.433Z,12.00
2018-07-23T02:07:43.485Z,12.37
2018-07-23T02:10:11.759Z,14.10
2018-07-23T02:12:39.790Z,13.97
2018-07-23T02:15:07.885Z,14.43
2018-07-23T02:17:36.080Z,15.23
2018-07-23T02:20:04.838Z,13.20
2018-07-23T02:22:32.890Z,12.40
2018-07-23T02:25:00.964Z,12.37
2018-07-23T02:27:29.050Z,16.50
2018-07-23T02:29:57.050Z,12.53
2018-07-23T02:32:25.092Z,13.77
2018-07-23T02:34:54.338Z,14.70
2018-07-23T02:37:22.346Z,14.03
2018-07-23T02:39:50.366Z,13.30
2018-07-23T02:42:18.203Z,16.03
2018-07-23T02:44:46.090Z,14.63
2018-07-23T02:47:14.475Z,17.67
2018-07-23T02:49:42.475Z,12.50
2018-07-23T02:52:10.561Z,13.73
2018-07-23T02:54:38.655Z,18.53
2018-07-23T02:57:06.650Z,15.13
2018-07-23T02:59:34.779Z,14.07
2018-07-23T03:02:03.186Z,14.63
2018-07-23T03:04:31.183Z,17.97
2018-07-23T03:06:59.120Z,14.60
2018-07-23T03:09:27.163Z,13.90
2018-07-23T03:11:54.987Z,15.80
2018-07-23T03:14:22.899Z,12.93
2018-07-23T03:16:51.037Z,17.07
2018-07-23T03:19:19.108Z,16.53
2018-07-23T03:21:47.162Z,13.57
2018-07-23T03:24:15.258Z,17.03
2018-07-23T03:26:43.344Z,19.47
2018-07-23T03:29:11.410Z,14.80
2018-07-23T03:31:39.884Z,13.00
2018-07-23T03:34:07.834Z,18.27
2018-07-23T03:36:35.670Z,18.97
2018-07-23T03:41:56.652Z,15.27
2018-07-23T03:44:24.465Z,16.27
2018-07-23T03:46:52.334Z,12.13
2018-07-23T03:49:20.547Z,13.50
2018-07-23T03:51:48.448Z,16.57
2018-07-23T03:54:16.474Z,14.27
2018-07-23T03:56:44.435Z,12.20
2018-07-23T03:59:12.230Z,15.30
2018-07-23T04:01:40.115Z,15.20
2018-07-23T04:04:08.769Z,13.17
2018-07-23T04:06:36.720Z,13.33
2018-07-23T04:09:07.199Z,10.40
2018-07-23T04:11:35.415Z,12.93
2018-07-23T04:14:03.383Z,12.17
2018-07-23T04:16:31.203Z,18.27
2018-07-23T04:18:59.139Z,12.93
2018-07-23T04:21:27.951Z,14.87
2018-07-23T04:23:55.812Z,16.00
2018-07-23T04:26:23.691Z,12.88
2018-07-23T04:28:51.503Z,15.43
2018-07-23T04:31:19.362Z,12.37
2018-07-23T04:33:48.688Z,15.23
2018-07-23T04:36:17.601Z,14.93
2018-07-23T04:38:53.951Z,14.93
2018-07-23T04:41:22.869Z,15.23
2018-07-23T04:43:50.856Z,13.83
2018-07-23T04:46:18.696Z,13.85
2018-07-23T04:48:50.492Z,15.70
2018-07-23T04:51:21.898Z,13.53
2018-07-23T04:53:49.869Z,14.95
2018-07-23T04:56:17.689Z,15.18
2018-07-23T04:58:45.747Z,20.77
2018-07-23T05:01:13.631Z,20.35
2018-07-23T05:03:41.412Z,15.40
2018-07-23T05:06:09.412Z,16.48
2018-07-23T05:08:37.207Z,11.75
2018-07-23T05:11:04.993Z,16.17
2018-07-23T05:13:32.962Z,16.67
2018-07-23T05:16:00.743Z,20.90
2018-07-23T05:18:28.528Z,13.03
2018-07-23T05:20:56.443Z,16.42
2018-07-23T05:23:24.331Z,13.22
2018-07-23T05:25:52.202Z,16.57
2018-07-23T05:28:20.190Z,15.38
2018-07-23T05:30:48.115Z,15.98
2018-07-23T05:33:16.078Z,17.32
2018-07-23T05:35:43.996Z,12.73
2018-07-23T05:38:11.878Z,16.23
2018-07-23T05:40:39.988Z,14.50
2018-07-23T05:43:08.302Z,15.60
2018-07-23T05:45:36.141Z,13.93
2018-07-23T05:48:04.058Z,13.93
2018-07-23T05:50:32.139Z,12.78
2018-07-23T05:52:59.950Z,12.63
2018-07-23T05:55:27.846Z,16.40
2018-07-23T05:57:56.301Z,15.68
2018-07-23T06:00:24.113Z,13.85
2018-07-23T06:02:51.959Z,12.63
2018-07-23T06:05:19.878Z,13.62
2018-07-23T06:07:47.691Z,10.75
2018-07-23T06:10:15.552Z,11.22
2018-07-23T06:12:43.498Z,11.22
2018-07-23T06:15:11.576Z,13.78
2018-07-23T06:17:39.517Z,12.20
2018-07-23T06:20:08.286Z,15.10
2018-07-23T06:22:36.183Z,14.45
2018-07-23T06:25:04.391Z,15.43
2018-07-23T06:27:32.302Z,14.35
2018-07-23T06:30:00.194Z,14.75
2018-07-23T06:32:28.003Z,16.32
2018-07-23T06:34:55.971Z,13.50
2018-07-23T06:37:23.899Z,12.58
2018-07-23T06:39:51.728Z,11.22
2018-07-23T06:42:19.569Z,10.93
2018-07-23T06:44:47.482Z,11.28
2018-07-23T06:47:15.357Z,11.22
2018-07-23T06:49:43.392Z,11.08
2018-07-23T06:52:11.169Z,12.33
2018-07-23T06:54:39.011Z,11.60
2018-07-23T06:57:07.003Z,17.12
2018-07-23T06:59:35.566Z,12.90
2018-07-23T07:02:03.722Z,10.23
2018-07-23T07:04:32.118Z,10.63
2018-07-23T07:07:00.070Z,9.60
2018-07-23T07:09:27.967Z,10.95
2018-07-23T07:11:55.887Z,9.43
2018-07-23T07:14:23.739Z,15.05
2018-07-23T07:16:51.551Z,13.88
2018-07-23T07:19:19.618Z,13.03
2018-07-23T07:21:47.470Z,10.45
2018-07-23T07:24:15.310Z,12.35
2018-07-23T07:26:43.270Z,12.93
2018-07-23T07:29:11.191Z,12.73
2018-07-23T07:31:38.983Z,10.23
2018-07-23T07:34:06.815Z,14.10
2018-07-23T07:36:34.755Z,11.08
2018-07-23T07:39:03.069Z,10.60
2018-07-23T07:41:31.302Z,12.07
2018-07-23T07:43:59.123Z,17.87
2018-07-23T07:46:27.058Z,9.60
2018-07-23T07:48:55.310Z,12.75
2018-07-23T07:51:23.126Z,11.78
2018-07-23T07:53:50.862Z,12.00
2018-07-23T07:56:19.095Z,11.40
2018-07-23T07:58:46.865Z,10.38
2018-07-23T08:01:14.678Z,9.90
2018-07-23T08:03:42.613Z,10.75
2018-07-23T08:06:10.459Z,11.53
2018-07-23T08:08:38.346Z,8.10
2018-07-23T08:11:06.694Z,10.58
2018-07-23T08:13:34.588Z,7.25
2018-07-23T08:16:02.496Z,7.65
2018-07-23T08:18:30.555Z,12.88
2018-07-23T08:20:58.420Z,10.45
2018-07-23T08:23:26.306Z,11.75
2018-07-23T08:25:54.368Z,10.68
2018-07-23T08:28:22.134Z,9.20
2018-07-23T08:30:50.117Z,10.13
2018-07-23T08:33:18.033Z,10.25
2018-07-23T08:35:45.917Z,11.95
2018-07-23T08:38:13.806Z,9.10
2018-07-23T08:40:42.091Z,9.25
2018-07-23T08:43:09.940Z,8.50
2018-07-23T08:45:38.060Z,9.28
2018-07-23T08:48:06.142Z,9.85
2018-07-23T08:50:34.243Z,8.43
2018-07-23T08:53:02.075Z,11.50
2018-07-23T08:55:30.025Z,10.43
2018-07-23T08:57:57.909Z,9.93
2018-07-23T09:00:25.802Z,11.70
2018-07-23T09:02:54.329Z,7.92
2018-07-23T09:05:22.356Z,10.32
2018-07-23T09:07:50.355Z,9.70
2018-07-23T09:10:18.316Z,6.47
2018-07-23T09:12:46.166Z,8.13
2018-07-23T09:15:14.066Z,7.60
2018-07-23T09:17:42.231Z,10.48
2018-07-23T09:20:10.100Z,8.68
2018-07-23T09:22:37.983Z,7.25
2018-07-23T09:25:06.011Z,8.28
2018-07-23T09:27:33.995Z,6.75
2018-07-23T09:30:01.905Z,10.32
2018-07-23T09:32:29.741Z,8.23
2018-07-23T09:34:57.631Z,7.22
2018-07-23T09:37:25.651Z,7.35
2018-07-23T09:39:54.621Z,7.58
2018-07-23T09:42:22.688Z,8.35
2018-07-23T09:44:50.639Z,8.10
2018-07-23T09:47:18.544Z,6.78
2018-07-23T09:49:46.378Z,7.08
2018-07-23T09:52:14.195Z,7.00
2018-07-23T09:54:42.536Z,8.30
2018-07-23T09:57:10.325Z,11.22
2018-07-23T09:59:38.235Z,5.95
2018-07-23T10:02:06.410Z,7.97
2018-07-23T10:04:34.352Z,8.43
2018-07-23T10:07:02.201Z,6.90
2018-07-23T10:09:30.140Z,11.55
2018-07-23T10:11:58.111Z,11.33
2018-07-23T10:14:25.990Z,7.03
2018-07-23T10:16:54.568Z,4.37
2018-07-23T10:19:22.436Z,4.58
2018-07-23T10:21:50.376Z,4.22
2018-07-23T10:24:18.727Z,4.80
2018-07-23T10:26:46.614Z,3.50
2018-07-23T10:29:14.389Z,4.92
2018-07-23T10:31:42.264Z,4.62
2018-07-23T10:34:10.058Z,3.47
2018-07-23T10:36:37.904Z,5.05
2018-07-23T10:39:08.198Z,5.72
2018-07-23T12:07:12.686Z,7.67
2018-07-23T12:09:40.390Z,6.58
2018-07-23T12:12:08.093Z,7.20
2018-07-23T12:14:36.434Z,5.90
2018-07-23T12:17:04.339Z,5.62
2018-07-23T12:19:32.035Z,8.90
2018-07-23T12:21:59.813Z,6.60
2018-07-23T12:24:27.535Z,9.60
2018-07-23T12:26:55.275Z,7.75
2018-07-23T12:29:23.397Z,5.92
2018-07-23T12:31:51.163Z,6.05
2018-07-23T12:34:18.978Z,8.23
2018-07-23T12:36:46.749Z,8.40
2018-07-23T12:39:14.449Z,7.85
2018-07-23T12:41:42.367Z,6.58
2018-07-23T12:44:10.725Z,7.83
2018-07-23T12:46:38.600Z,6.97
2018-07-23T12:49:06.574Z,6.60
2018-07-23T12:51:34.326Z,7.55
2018-07-23T12:54:02.293Z,7.95
2018-07-23T12:56:30.034Z,5.78
2018-07-23T12:58:57.819Z,5.17
2018-07-23T13:01:25.493Z,7.35
2018-07-23T13:03:53.255Z,5.87
2018-07-23T13:06:21.529Z,6.58
2018-07-23T13:08:49.358Z,7.30
2018-07-23T13:11:17.066Z,6.50
2018-07-23T13:13:45.174Z,9.68
2018-07-23T13:16:12.973Z,7.92
2018-07-23T13:18:40.710Z,6.67
2018-07-23T13:21:09.479Z,7.62
2018-07-23T13:23:37.331Z,8.20
2018-07-23T13:26:05.330Z,9.08
2018-07-23T13:28:33.457Z,9.98
2018-07-23T13:31:01.177Z,9.70
2018-07-23T13:33:28.834Z,7.97
2018-07-23T13:35:57.109Z,8.35
2018-07-23T13:38:24.960Z,8.68
2018-07-23T13:40:52.553Z,9.10
2018-07-23T13:43:20.766Z,6.75
2018-07-23T13:45:48.536Z,5.35
2018-07-23T13:48:16.278Z,10.80
2018-07-23T13:50:44.571Z,9.30
2018-07-23T13:53:12.338Z,8.45
2018-07-23T13:55:40.107Z,10.80
2018-07-23T13:58:07.880Z,11.48
2018-07-23T14:00:35.582Z,10.80
2018-07-23T14:03:03.334Z,8.40
2018-07-23T14:05:33.331Z,11.93
2018-07-23T14:08:01.074Z,9.63
2018-07-23T14:10:28.750Z,11.20
2018-07-23T14:12:56.541Z,8.73
2018-07-23T14:15:24.273Z,9.33
2018-07-23T14:17:52.043Z,10.32
2018-07-23T14:20:19.811Z,8.43
2018-07-23T14:22:47.503Z,6.87
2018-07-23T14:25:15.189Z,8.85
2018-07-23T14:27:42.954Z,10.40
2018-07-23T14:30:10.714Z,10.53
2018-07-23T14:32:38.484Z,9.33
2018-07-23T14:35:06.383Z,8.07
2018-07-23T14:37:34.246Z,12.13
2018-07-23T14:40:01.962Z,9.80
2018-07-23T14:42:30.139Z,19.07
2018-07-23T14:44:57.970Z,16.90
2018-07-23T14:47:25.807Z,14.83
2018-07-23T14:49:53.587Z,12.73
2018-07-23T14:52:21.350Z,12.13
2018-07-23T14:54:49.133Z,13.30
2018-07-23T14:57:16.940Z,12.82
2018-07-23T14:59:44.662Z,16.40
2018-07-23T15:02:12.407Z,14.65
2018-07-23T15:04:40.686Z,12.13
2018-07-23T15:07:08.685Z,25.48
2018-07-23T15:09:36.961Z,24.37
2018-07-23T15:12:04.868Z,16.80
2018-07-23T15:14:32.598Z,15.48
2018-07-23T15:17:00.499Z,12.15
2018-07-23T15:19:28.343Z,12.05
2018-07-23T15:21:56.121Z,12.35
2018-07-23T15:24:24.130Z,15.55
2018-07-23T15:26:52.285Z,10.80
2018-07-23T15:29:20.288Z,12.10
2018-07-23T15:31:48.312Z,10.28
2018-07-23T15:34:16.701Z,11.55
2018-07-23T15:36:44.454Z,10.88
2018-07-23T15:39:12.132Z,10.53
2018-07-23T15:41:39.949Z,10.50
2018-07-23T15:44:07.874Z,10.13
2018-07-23T15:46:35.657Z,10.75
2018-07-23T15:49:03.631Z,13.10
2018-07-23T15:51:31.341Z,17.52
2018-07-23T15:53:59.200Z,16.37
2018-07-23T15:56:27.052Z,13.78
2018-07-23T15:58:54.752Z,11.28
2018-07-23T16:01:22.486Z,22.52
2018-07-23T16:03:50.397Z,19.77
2018-07-23T16:06:18.160Z,12.73
2018-07-23T16:08:45.885Z,17.32
2018-07-23T16:11:14.118Z,10.58
2018-07-23T16:13:41.883Z,15.38
2018-07-23T16:16:09.668Z,16.40
2018-07-23T16:18:37.838Z,14.50
2018-07-23T16:21:05.615Z,12.30
2018-07-23T16:23:33.237Z,10.90
2018-07-23T16:26:01.063Z,11.57
2018-07-23T16:28:28.781Z,12.18
2018-07-23T16:30:56.531Z,12.13
2018-07-23T16:33:24.183Z,12.85
2018-07-23T16:35:51.866Z,11.95
2018-07-23T16:38:19.634Z,11.73
2018-07-23T16:40:47.792Z,10.18
2018-07-23T16:43:15.568Z,13.88
2018-07-23T16:45:43.324Z,8.55
2018-07-23T16:48:11.292Z,10.15
2018-07-23T16:50:39.112Z,10.78
2018-07-23T16:53:07.514Z,10.60
2018-07-23T16:55:35.391Z,12.90
2018-07-23T16:58:03.169Z,11.48
2018-07-23T17:00:30.966Z,8.33
2018-07-23T17:02:59.205Z,8.63
2018-07-23T17:05:27.012Z,8.25
2018-07-23T17:07:54.940Z,8.65
2018-07-23T17:10:22.911Z,7.40
2018-07-23T17:12:50.686Z,6.55
2018-07-23T17:15:18.493Z,7.20
2018-07-23T17:17:46.347Z,7.17
2018-07-23T17:20:14.169Z,8.38
2018-07-23T17:22:41.998Z,6.10
2018-07-23T17:25:09.909Z,6.62
2018-07-23T17:27:37.726Z,8.20
2018-07-23T17:30:05.656Z,7.17
2018-07-23T17:32:33.729Z,5.27
2018-07-23T17:35:01.605Z,5.73
2018-07-23T17:37:29.524Z,6.90
2018-07-23T17:39:57.639Z,7.25
2018-07-23T17:42:25.542Z,4.40
2018-07-23T17:44:53.584Z,9.87
2018-07-23T17:47:21.533Z,7.30
2018-07-23T17:49:49.248Z,6.13
2018-07-23T17:52:17.165Z,9.18
2018-07-23T17:54:45.162Z,7.93
2018-07-23T17:57:13.010Z,6.60
2018-07-23T17:59:40.913Z,8.40
2018-07-23T18:02:09.015Z,9.20
2018-07-23T18:04:36.915Z,6.90
2018-07-23T18:07:04.816Z,7.33
2018-07-23T18:09:32.767Z,6.17
2018-07-23T18:12:00.690Z,6.77
2018-07-23T18:14:28.631Z,8.17
2018-07-23T18:16:56.530Z,5.77
2018-07-23T18:19:24.282Z,8.37
2018-07-23T18:21:52.146Z,5.90
2018-07-23T18:24:20.159Z,6.43
2018-07-23T18:26:47.935Z,5.60
2018-07-23T18:29:15.803Z,6.93
2018-07-23T18:31:43.978Z,5.73
2018-07-23T18:34:11.859Z,5.83
2018-07-23T18:36:39.658Z,8.13
2018-07-23T18:39:09.737Z,7.77
2018-07-23T18:41:37.680Z,5.30
2018-07-23T18:44:05.506Z,6.07
2018-07-23T18:46:33.531Z,6.57
2018-07-23T18:49:25.725Z,5.43
2018-07-23T18:51:54.708Z,10.40
2018-07-23T18:54:23.857Z,7.93
2018-07-23T18:56:57.237Z,5.90
2018-07-23T18:59:25.044Z,8.87
2018-07-23T19:01:53.869Z,5.43
2018-07-23T19:04:21.715Z,6.07
2018-07-23T19:06:49.920Z,9.40
2018-07-23T19:09:18.755Z,13.57
2018-07-23T19:11:47.765Z,8.57
2018-07-23T19:14:16.054Z,10.03
2018-07-23T19:16:44.274Z,9.90
2018-07-23T19:19:12.358Z,9.97
2018-07-23T19:21:40.301Z,17.53
2018-07-23T19:24:08.115Z,37.43
2018-07-23T19:26:36.183Z,34.27
2018-07-23T19:29:04.235Z,18.73
2018-07-23T19:31:32.075Z,12.50
2018-07-23T19:34:01.513Z,11.63
2018-07-23T19:36:29.718Z,9.80
2018-07-23T19:38:57.867Z,10.67
2018-07-23T19:41:26.524Z,9.27
2018-07-23T19:43:54.548Z,10.03
2018-07-23T19:46:22.632Z,10.70
2018-07-23T19:48:50.704Z,9.37
2018-07-23T19:51:18.835Z,11.13
2018-07-23T19:53:47.070Z,9.60
2018-07-23T19:56:15.879Z,13.30
2018-07-23T19:58:43.783Z,8.47
2018-07-23T20:01:11.718Z,10.23
2018-07-23T20:03:39.550Z,10.70
2018-07-23T20:06:07.347Z,11.13
2018-07-23T20:08:35.259Z,11.07
2018-07-23T20:11:03.198Z,9.10
2018-07-23T20:13:31.115Z,10.13
2018-07-23T20:15:58.844Z,10.83
2018-07-23T20:18:26.938Z,11.97
2018-07-23T20:20:54.895Z,10.83
2018-07-23T20:23:23.136Z,9.30
2018-07-23T20:25:51.043Z,10.97
2018-07-23T20:28:18.944Z,11.63
2018-07-23T20:30:46.822Z,10.17
2018-07-23T20:33:15.185Z,11.47
2018-07-23T20:35:43.086Z,9.43
2018-07-23T20:38:10.982Z,9.87
2018-07-23T20:40:38.844Z,11.03
2018-07-23T20:43:06.716Z,12.70
2018-07-23T20:45:34.469Z,13.77
2018-07-23T20:48:02.775Z,15.13
2018-07-23T20:50:31.613Z,14.80
2018-07-23T20:52:59.521Z,18.30
2018-07-23T20:55:27.609Z,18.13
2018-07-23T20:57:55.447Z,15.97
2018-07-23T21:00:23.456Z,16.47
2018-07-23T21:02:51.678Z,15.97
2018-07-23T21:05:19.542Z,18.20
2018-07-23T21:07:47.410Z,19.20
2018-07-23T21:10:15.411Z,17.90
2018-07-23T21:12:43.283Z,17.17
2018-07-23T21:15:11.091Z,17.67
2018-07-23T21:17:41.204Z,18.83
2018-07-23T21:20:09.538Z,19.23
2018-07-23T21:22:37.741Z,22.30
2018-07-23T21:25:06.419Z,22.93
2018-07-23T21:27:34.438Z,23.27
2018-07-23T21:30:02.407Z,22.97
2018-07-23T21:32:30.728Z,20.70
2018-07-23T21:34:58.468Z,20.30
2018-07-23T21:37:26.332Z,20.43
2018-07-23T21:39:54.268Z,15.00
2018-07-23T21:42:22.064Z,19.20
2018-07-23T21:44:49.977Z,16.17
2018-07-23T21:47:18.100Z,17.20
2018-07-23T21:49:45.963Z,15.50
2018-07-23T21:52:13.848Z,16.83
2018-07-23T21:54:41.772Z,15.17
2018-07-23T21:57:09.712Z,15.53
2018-07-23T21:59:37.559Z,16.07
2018-07-23T22:02:06.144Z,15.13
2018-07-23T22:04:33.927Z,16.73
2018-07-23T22:07:01.795Z,14.63
2018-07-23T22:09:29.833Z,15.87
2018-07-23T22:11:57.599Z,16.33
2018-07-23T22:14:25.378Z,15.90
2018-07-23T22:16:53.216Z,17.27
2018-07-23T22:19:21.041Z,18.37
2018-07-23T22:21:48.912Z,14.00
2018-07-23T22:24:16.853Z,15.30
2018-07-23T22:26:44.699Z,15.00
2018-07-23T22:29:12.534Z,15.67
2018-07-23T22:31:40.428Z,15.07
2018-07-23T22:34:08.372Z,15.80
2018-07-23T22:36:36.188Z,16.17
2018-07-23T22:39:07.485Z,18.13
2018-07-23T22:41:35.296Z,17.00
2018-07-23T22:44:04.125Z,15.80
2018-07-23T22:46:32.004Z,16.17
2018-07-23T22:49:00.866Z,14.67
2018-07-23T22:51:28.786Z,20.33
2018-07-23T22:53:56.722Z,15.77
2018-07-23T22:56:24.689Z,15.53
2018-07-23T22:58:52.404Z,14.60
2018-07-23T23:01:20.932Z,15.97
2018-07-23T23:03:48.830Z,24.97
2018-07-23T23:06:16.720Z,14.90
2018-07-23T23:08:44.797Z,14.47
2018-07-23T23:11:12.530Z,14.70
2018-07-23T23:13:40.349Z,15.47
2018-07-23T23:16:08.663Z,15.97
2018-07-23T23:18:36.581Z,13.13
2018-07-23T23:21:04.503Z,12.03
2018-07-23T23:23:32.306Z,10.97
2018-07-23T23:26:00.151Z,12.47
2018-07-23T23:28:28.016Z,12.20
2018-07-23T23:30:55.815Z,12.00
2018-07-23T23:33:23.636Z,9.00
2018-07-23T23:35:51.545Z,11.13
2018-07-23T23:38:19.616Z,10.07
2018-07-23T23:40:47.419Z,9.53
2018-07-23T23:43:15.168Z,8.73
2018-07-23T23:45:43.003Z,9.00
2018-07-23T23:48:10.803Z,10.17
2018-07-23T23:50:38.622Z,10.23
2018-07-23T23:53:06.429Z,8.43
2018-07-23T23:55:34.290Z,9.47
2018-07-23T23:58:02.105Z,10.90
